Honaker, VA (24260)

11:33 PM EST on January 26, 2015 (GMT -0500)
Tazewell County | Change Station
CLOSE
Current Station
Airport
Location: Richlands,
Elevation: 2651 ft
Nearby Weather Stations
Active Advisory: Special Statement

Elev 2651 ft 37.06 °N, 81.80 °W | Updated 18 minutes ago

Overcast
Overcast
22 °F
Feels Like 13 °F
N
8
Wind Variable Wind from NW

Today
High -- | Low -- °F
--% Chance of Precip.
Yesterday
High -- | Low -- °F
Precip. -- in
7:35 AM 5:46 PM
Waxing Crescent, 50% visible
Pressure 29.80 in
Visibility 10.0 miles
Clouds Overcast 700 ft
Windchill 13 °F
Dew Point 18 °F
Humidity 86%
Rainfall 0.03 in
Snow Depth Not available.
UV 0 out of 12
Pollen .30 out of 12
Air Quality Not available.
Flu Activity Not available.
METAR KJFZ 270415Z AUTO 32007KT 10SM OVC007 M05/M07 A2980 RMK AO2 T10551075

More Conditions Fewer Conditions

Pressure 29.80 in
Visibility 10.0 miles
Clouds Overcast 700 ft
Windchill 13 °F
Dew Point 18 °F
Humidity 86%
Rainfall 0.03 in
Snow Depth Not available.
UV 0 out of 12
Pollen .30 out of 12
Air Quality Not available.
Flu Activity Not available.
METAR KJFZ 270415Z AUTO 32007KT 10SM OVC007 M05/M07 A2980 RMK AO2 T10551075

More Conditions Fewer Conditions

10-Day Weather Forecast

Almanac

Astronomy

Jan. 26, 2015 Rise Set
Actual Time
Civil Twilight
Nautical Twilight
Astronomical Twilight
Moon
Length of Visible Light
Length of Day
Tomorrow will be .
, % of the Moon is Illuminated

Today's Extremes

State Highs State Lows

Community

WunderPhotos

Upload Photos

1,790,527 photos uploaded!

WunderBlogs® & News

Nearby

Air Quality

  Air Quality AQ Index Pollutant
Not available.

Snow Depth

Station Depth Elevation

Earthquake Activity

City Distance Mag. Time & Date
Minimum magnitude displayed is 2.5.

Coastal Water Temperatures

Place Temperature

Nearby Weather Stations